Terminal Aerodrome Forecast
Issued by NWS Quad Cities IA IL

Home | Current Version | Previous Version | Text Only | Print | Product List | Glossary On
Versions: 1 2 3 4 5 6 7 8 9 10 11 12 13 14 15 16 17 18 19
000
FTUS43 KDVN 241100
TAFMLI
TAF
KMLI 241139Z 2412/2512 22013KT P6SM SCT120
     FM241630 25017G26KT P6SM BKN030
     FM242000 28016G25KT P6SM BKN020
     FM250000 29013KT P6SM SCT020
     FM250300 30007KT P6SM SKC=

USA.gov is the U.S. government's official web portal to all federal, state and local government web resources and services.